Tenino, WA

7:22 AM PDT on August 22, 2014 (GMT -0700)
Tenino, WA | Change Station
CLOSE
Current Station
Personal Weather Station
Location: Tenino, WA
Elevation: 283 ft
Nearby Weather Stations

Elev 283 ft 46.86 °N, 122.85 °W | Updated 1 second ago

Fog
Fog
51.5 °F
Feels Like 51.5 °F
N
1.0
Wind Variable Wind from NNE
Gusts 3.0 mph

Today
High -- | Low -- °F
--% Chance of Precip.
Yesterday
High -- | Low -- °F
Precip. -- in
6:18 AM 8:09 PM
Waning Crescent, 8% visible
Pressure 30.04 in
Visibility 0.5 miles
Clouds Overcast 200 ft
Dew Point 50 °F
Humidity 93%
Rainfall 0.00 in
Snow Depth Not available.
UV 0 out of 12
Pollen 3.00 out of 12
Air Quality Not available.
Flu Activity Not available.
SPECI KOLM 221411Z AUTO 00000KT 1/2SM FG OVC002 09/09 A3004 RMK AO2 T00940089

More Conditions Fewer Conditions

Pressure 30.04 in
Visibility 0.5 miles
Clouds Overcast 200 ft
Dew Point 50 °F
Humidity 93%
Rainfall 0.00 in
Snow Depth Not available.
UV 0 out of 12
Pollen 3.00 out of 12
Air Quality Not available.
Flu Activity Not available.
SPECI KOLM 221411Z AUTO 00000KT 1/2SM FG OVC002 09/09 A3004 RMK AO2 T00940089

More Conditions Fewer Conditions

10-Day Weather Forecast

Almanac

Astronomy

Aug. 22, 2014 Rise Set
Actual Time 6:18 AM PDT 8:09 PM PDT
Civil Twilight 5:45 AM PDT 8:41 PM PDT
Nautical Twilight 5:05 AM PDT 9:21 PM PDT
Astronomical Twilight 4:22 AM PDT 10:04 PM PDT
Moon 3:41 AM PDT 6:24 PM PDT
Length of Visible Light 14h 55m
Length of Day
13h 51m
Tomorrow will be 3m 7s shorter.
Waning Crescent, 8% of the Moon is Illuminated
Today
Waning Crescent
Aug 25
New
Sep 2
First Quarter
Sep 8
Full
Sep 15
Last Quarter

Today's Extremes

State Highs State Lows

Community

WunderPhotos

Upload Photos

1,746,180 photos uploaded!

WunderBlogs® & News

By Dr. Jeff Masters
Director of Meteorology, Weather Underground
By Kari Strenfel
Meteorologist, Weather Underground
By Christopher C. Burt
Weather Historian, Weather Underground
August 22, 2014
August 22, 2014
August 22, 2014

Nearby

Snow Depth

Station Depth Elevation
Burnt Mountain 0 in 4200 ft
Spirit Lake 0 in 3120 ft
Sheep Canyon 0 in 4030 ft
Swift Creek 0 in 3770 ft
Lone Pine 0 in 3800 ft

Earthquake Activity

City Distance Mag. Time & Date
No recent earthquake activity has been reported nearby.
Minimum magnitude displayed is 2.5.

Coastal Water Temperatures

Place Temperature
Port Townsend, WA 53.1 °F
Seattle, WA 55.9 °F
Friday Harbor, WA 54.0 °F
Tacoma, WA 55.9 °F

Nearby Weather Stations